^^
Grace C. Lehan Memorial Weather Station Historical Data
Daily Summary for December 22, 2021 Units:  English    Metric   Both
Daily Weekly Monthly Yearly
  High: Low: Average:
Temperature: 48.3 °F 32.7 °F 37.4 °F
Dew Point: 44.2 °F 19.8 °F 30.9 °F
Humidity: 97.4% 56% 79%
Wind Speed: 10.6mph 0mph 2.6mph
Wind Gust: 26mph - -
Wind- - WSW
Pressure: 29.83 in 29.46 in -
Precipitation: 0.18 in    
 
 
Tabular Data for December 22, 2021
Time Temperature Dew Point Pressure Wind Wind Speed Wind Gust Humidity Rainfall Rate (Hourly) solar
00:04 34.8 °F 30.5 °F 29.83 in Calm     84.1% 0.00 in 0 W/m2
00:09 34.8 °F 30.5 °F 29.82 in Calm     84% 0.00 in 0 W/m2
00:14 34.8 °F 30.7 °F 29.82 in Calm     84.6% 0.00 in 0 W/m2
00:19 34.9 °F 30.8 °F 29.82 in Calm     85% 0.00 in 0 W/m2
00:24 34.9 °F 30.9 °F 29.82 in Calm     85% 0.00 in 0 W/m2
00:29 34.9 °F 30.9 °F 29.81 in Calm     85.3% 0.00 in 0 W/m2
00:34 34.9 °F 31.1 °F 29.80 in Calm     86% 0.00 in 0 W/m2
00:39 34.8 °F 31.1 °F 29.80 in Calm     86% 0.00 in 0 W/m2
00:44 34.8 °F 31.3 °F 29.79 in ESE 0.4 mph 3 mph 86.8% 0.00 in 0 W/m2
00:49 34.8 °F 31.3 °F 29.79 in Calm   3 mph 87% 0.00 in 0 W/m2
00:54 34.7 °F 31.3 °F 29.78 in ENE 1.5 mph 4 mph 87% 0.00 in 0 W/m2
00:59 34.7 °F 31.3 °F 29.77 in NNE 0.4 mph 4 mph 87.1% 0.00 in 0 W/m2
01:04 34.6 °F 31.5 °F 29.77 in NNE 0.5 mph 3 mph 88% 0.00 in 0 W/m2
01:09 34.6 °F 31.4 °F 29.77 in NNE 0.3 mph 3 mph 88% 0.00 in 0 W/m2
01:14 34.6 °F 31.4 °F 29.76 in Calm   3 mph 88% 0.00 in 0 W/m2
01:19 34.6 °F 31.5 °F 29.76 in NNE 0.6 mph 5 mph 88.2% 0.00 in 0 W/m2
01:24 34.6 °F 31.7 °F 29.76 in Calm   5 mph 89% 0.00 in 0 W/m2
01:29 34.6 °F 31.7 °F 29.76 in Calm   5 mph 89% 0.00 in 0 W/m2
01:34 34.6 °F 31.7 °F 29.76 in NNE 0.2 mph 5 mph 89% 0.00 in 0 W/m2
01:39 34.5 °F 31.6 °F 29.76 in Calm   2 mph 89% 0.00 in 0 W/m2
01:44 34.5 °F 31.6 °F 29.76 in NNE 0.2 mph 3 mph 89% 0.00 in 0 W/m2
01:49 34.5 °F 31.6 °F 29.75 in NNE 0.2 mph 3 mph 89% 0.00 in 0 W/m2
01:54 34.5 °F 31.6 °F 29.75 in NNE 0.9 mph 5 mph 89% 0.00 in 0 W/m2
01:59 34.6 °F 31.7 °F 29.74 in NNE 0.1 mph 5 mph 89% 0.00 in 0 W/m2
02:04 34.6 °F 31.7 °F 29.74 in NNE 0.6 mph 5 mph 89% 0.00 in 0 W/m2
02:09 34.6 °F 31.7 °F 29.74 in North 0.7 mph 5 mph 89% 0.00 in 0 W/m2
02:14 34.6 °F 31.7 °F 29.73 in North 0.2 mph 5 mph 89% 0.00 in 0 W/m2
02:19 34.6 °F 31.7 °F 29.73 in North 0.2 mph 5 mph 89% 0.00 in 0 W/m2
02:24 34.6 °F 31.7 °F 29.73 in Calm   5 mph 89% 0.00 in 0 W/m2
02:29 34.7 °F 31.8 °F 29.73 in Calm   5 mph 89.1% 0.00 in 0 W/m2
02:34 34.7 °F 32.1 °F 29.73 in North 0.6 mph 5 mph 90% 0.00 in 0 W/m2
02:39 34.8 °F 32.2 °F 29.72 in North 0.4 mph 4 mph 90% 0.00 in 0 W/m2
02:44 34.8 °F 32.2 °F 29.71 in North 0.1 mph 4 mph 90% 0.00 in 0 W/m2
02:49 34.8 °F 32.2 °F 29.71 in North 1.6 mph 4 mph 90% 0.00 in 0 W/m2
02:54 34.8 °F 32.2 °F 29.70 in North 0.4 mph 4 mph 90% 0.00 in 0 W/m2
02:59 34.8 °F 32.2 °F 29.70 in North 1.1 mph 6 mph 90% 0.00 in 0 W/m2
03:04 34.8 °F 32.2 °F 29.70 in North 0.8 mph 6 mph 90% 0.00 in 0 W/m2
03:09 34.8 °F 32.2 °F 29.69 in North 0.2 mph 5 mph 90% 0.00 in 0 W/m2
03:14 34.9 °F 32.3 °F 29.70 in North 0.4 mph 5 mph 90.1% 0.00 in 0 W/m2
03:19 35 °F 32.6 °F 29.70 in North 0.7 mph 5 mph 91% 0.00 in 0 W/m2
03:24 35 °F 32.6 °F 29.68 in North 0.5 mph 5 mph 91% 0.01 in 0 W/m2
03:29 35 °F 32.6 °F 29.68 in North 0.2 mph 5 mph 91% 0.01 in 0 W/m2
03:34 35.1 °F 32.7 °F 29.68 in North 0.3 mph 5 mph 91% 0.01 in 0 W/m2
03:39 35.1 °F 32.7 °F 29.67 in Calm   3 mph 91% 0.01 in 0 W/m2
03:44 35.1 °F 32.7 °F 29.67 in Calm   3 mph 91% 0.01 in 0 W/m2
03:49 35.1 °F 32.7 °F 29.66 in North 0.2 mph 4 mph 91% 0.01 in 0 W/m2
03:54 35 °F 32.7 °F 29.66 in North 0.4 mph 4 mph 91% 0.02 in 0 W/m2
03:59 34.9 °F 32.7 °F 29.66 in North 0.5 mph 4 mph 91.4% 0.02 in 0 W/m2
04:00 34.9 °F 32.8 °F 29.66 in Calm   4 mph 92% 0.02 in 0 W/m2
04:09 34.8 °F 32.7 °F 29.65 in North 0.8 mph 4 mph 92% 0.02 in 0 W/m2
04:14 34.7 °F 32.7 °F 29.64 in NNE 0.7 mph 4 mph 92% 0.03 in 0 W/m2
04:19 34.7 °F 32.6 °F 29.64 in Calm   4 mph 92% 0.03 in 0 W/m2
04:24 34.6 °F 32.5 °F 29.64 in NNE 0.3 mph 4 mph 92% 0.03 in 0 W/m2
04:29 34.6 °F 32.5 °F 29.64 in NNE 0.8 mph 5 mph 92% 0.03 in 0 W/m2
04:34 34.5 °F 32.4 °F 29.63 in NE 1.2 mph 5 mph 92% 0.03 in 0 W/m2
04:39 34.4 °F 32.4 °F 29.63 in NE 1 mph 5 mph 92.2% 0.02 in 0 W/m2
04:44 34.3 °F 32.5 °F 29.62 in NE 0.5 mph 5 mph 93% 0.02 in 0 W/m2
04:49 34.3 °F 32.5 °F 29.62 in NE 2.5 mph 6 mph 93% 0.02 in 0 W/m2
04:54 34.3 °F 32.5 °F 29.61 in NE 0.1 mph 6 mph 93% 0.02 in 0 W/m2
04:59 34.3 °F 32.5 °F 29.61 in NE 0.4 mph 6 mph 93% 0.02 in 0 W/m2
05:04 34.3 °F 32.5 °F 29.61 in Calm   6 mph 93% 0.02 in 0 W/m2
05:09 34.3 °F 32.5 °F 29.60 in Calm     93% 0.00 in 0 W/m2
05:14 34.3 °F 32.5 °F 29.60 in NE 0.3 mph 4 mph 93% 0.00 in 0 W/m2
05:19 34.3 °F 32.5 °F 29.60 in NE 0.4 mph 4 mph 93% 0.00 in 0 W/m2
05:24 34.4 °F 32.6 °F 29.60 in North 0.8 mph 4 mph 93% 0.00 in 0 W/m2
05:29 34.4 °F 32.6 °F 29.59 in North 0.2 mph 4 mph 93% 0.00 in 0 W/m2
05:34 34.4 °F 32.6 °F 29.59 in Calm   4 mph 93.1% 0.00 in 0 W/m2
05:39 34.5 °F 32.9 °F 29.59 in North 1.2 mph 6 mph 94% 0.00 in 0 W/m2
05:44 34.5 °F 32.8 °F 29.59 in Calm   6 mph 93.5% 0.00 in 0 W/m2
05:49 34.5 °F 33 °F 29.58 in NNW 1.5 mph 6 mph 94% 0.00 in 0 W/m2
05:54 34.6 °F 33 °F 29.58 in Calm   6 mph 94% 0.00 in 0 W/m2
05:59 34.6 °F 33 °F 29.58 in NNW 0.7 mph 6 mph 94% 0.00 in 0 W/m2
06:04 34.6 °F 33.1 °F 29.58 in NNW 0.7 mph 6 mph 94% 0.00 in 0 W/m2
06:09 34.6 °F 33.1 °F 29.57 in NNW 0.3 mph 6 mph 94% 0.00 in 0 W/m2
06:14 34.7 °F 33.1 °F 29.57 in Calm   6 mph 94% 0.00 in 0 W/m2
06:19 34.7 °F 33.2 °F 29.57 in Calm   6 mph 94% 0.00 in 0 W/m2
06:24 34.8 °F 33.2 °F 29.56 in NNW 0.4 mph 6 mph 94% 0.00 in 0 W/m2
06:29 34.8 °F 33.3 °F 29.56 in Calm   6 mph 94% 0.00 in 0 W/m2
06:34 34.9 °F 33.3 °F 29.57 in NNW 0.9 mph 6 mph 94% 0.00 in 0 W/m2
06:39 34.9 °F 33.3 °F 29.57 in NNW 0.4 mph 4 mph 94% 0.00 in 0 W/m2
06:44 35 °F 33.4 °F 29.57 in NNW 0.7 mph 4 mph 94% 0.00 in 0 W/m2
06:49 35 °F 33.5 °F 29.58 in NNW 0.7 mph 4 mph 94% 0.00 in 0 W/m2
06:54 35.1 °F 33.6 °F 29.58 in NNW 0.3 mph 4 mph 94% 0.01 in 0 W/m2
06:59 35.2 °F 33.7 °F 29.58 in Calm   4 mph 94% 0.01 in 0 W/m2
07:04 35.3 °F 33.7 °F 29.58 in Calm   4 mph 94% 0.01 in 0 W/m2
07:09 35.3 °F 33.8 °F 29.58 in Calm     94% 0.01 in 0 W/m2
07:14 35.4 °F 33.9 °F 29.58 in Calm     94% 0.01 in 0 W/m2
07:19 35.6 °F 34 °F 29.58 in NNW 0.1 mph 3 mph 94% 0.02 in 0 W/m2
07:24 35.7 °F 34.1 °F 29.57 in Calm   3 mph 94% 0.03 in 0 W/m2
07:29 35.8 °F 34.2 °F 29.57 in Calm   3 mph 94% 0.03 in 0 W/m2
07:34 35.9 °F 34.6 °F 29.57 in Calm   3 mph 94.8% 0.04 in 0 W/m2
07:39 36 °F 34.7 °F 29.57 in Calm     95% 0.04 in 0 W/m2
07:44 36.1 °F 34.8 °F 29.57 in Calm     95% 0.04 in 0 W/m2
07:49 36.1 °F 34.8 °F 29.57 in Calm     95% 0.05 in 0 W/m2
07:54 36.2 °F 34.9 °F 29.57 in Calm     95% 0.06 in 5 W/m2
07:59 36.3 °F 35 °F 29.57 in NNW 0.4 mph 3 mph 95% 0.07 in 7 W/m2
08:00 36.4 °F 35.1 °F 29.56 in Calm   3 mph 95% 0.07 in 7 W/m2
08:09 36.5 °F 35.2 °F 29.56 in Calm     95% 0.07 in 14 W/m2
08:14 36.6 °F 35.3 °F 29.56 in Calm     95% 0.07 in 18 W/m2
08:19 36.7 °F 36 °F 29.55 in North 1.1 mph 5 mph 97.4% 0.07 in 21 W/m2
08:24 36.8 °F 35.5 °F 29.55 in Calm   5 mph 95% 0.08 in 19 W/m2
08:29 36.9 °F 35.6 °F 29.55 in Calm   5 mph 95% 0.08 in 18 W/m2
08:34 37.1 °F 35.8 °F 29.55 in Calm   5 mph 95% 0.08 in 21 W/m2
08:39 37.2 °F 35.9 °F 29.55 in North 0.2 mph 2 mph 95% 0.07 in 26 W/m2
08:44 37.3 °F 36 °F 29.55 in North 0.6 mph 3 mph 95% 0.07 in 32 W/m2
08:49 37.4 °F 36.1 °F 29.55 in Calm   3 mph 95% 0.08 in 28 W/m2
08:54 37.5 °F 36.2 °F 29.55 in Calm   3 mph 95% 0.08 in 51 W/m2
08:59 37.5 °F 36.2 °F 29.54 in Calm   3 mph 95% 0.08 in 54 W/m2
09:04 37.6 °F 36.3 °F 29.54 in North 0.3 mph 3 mph 95% 0.08 in 37 W/m2
09:09 37.7 °F 36.4 °F 29.54 in Calm   3 mph 95% 0.05 in 37 W/m2
09:14 37.7 °F 36.4 °F 29.54 in Calm   3 mph 95% 0.05 in 23 W/m2
09:19 37.8 °F 36.5 °F 29.54 in Calm   3 mph 95% 0.05 in 42 W/m2
09:24 37.8 °F 36.5 °F 29.54 in Calm   3 mph 95% 0.06 in 54 W/m2
09:29 37.9 °F 36.6 °F 29.53 in Calm   3 mph 95% 0.06 in 49 W/m2
09:34 38 °F 36.7 °F 29.53 in Calm   3 mph 95% 0.06 in 35 W/m2
09:39 38.2 °F 36.9 °F 29.53 in Calm     95% 0.05 in 33 W/m2
09:44 38.2 °F 36.9 °F 29.53 in Calm     95% 0.05 in 33 W/m2
09:49 38.3 °F 37 °F 29.54 in Calm     95% 0.06 in 65 W/m2
09:54 38.4 °F 37.1 °F 29.53 in Calm     95% 0.06 in 76 W/m2
09:59 38.5 °F 37.2 °F 29.53 in North 0.3 mph 2 mph 95% 0.06 in 76 W/m2
10:04 38.7 °F 37.4 °F 29.53 in Calm   2 mph 95% 0.06 in 72 W/m2
10:09 38.9 °F 37.6 °F 29.53 in Calm     95% 0.04 in 109 W/m2
10:14 38.9 °F 37.6 °F 29.52 in Calm     95% 0.04 in 118 W/m2
10:19 39 °F 37.7 °F 29.52 in Calm     95% 0.04 in 97 W/m2
10:24 39.2 °F 37.9 °F 29.52 in Calm     95% 0.04 in 93 W/m2
10:29 39.4 °F 38.3 °F 29.51 in Calm     96% 0.04 in 142 W/m2
10:34 39.6 °F 38.5 °F 29.51 in Calm     95.9% 0.04 in 142 W/m2
10:39 39.7 °F 38.4 °F 29.51 in Calm     95% 0.02 in 81 W/m2
10:44 39.8 °F 38.6 °F 29.51 in North 0.4 mph 4 mph 95.2% 0.02 in 104 W/m2
10:49 40 °F 38.9 °F 29.50 in Calm   4 mph 96% 0.02 in 132 W/m2
10:54 40.1 °F 39.1 °F 29.50 in North 0.2 mph 4 mph 96% 0.02 in 125 W/m2
10:59 40.3 °F 39.2 °F 29.50 in North 0.4 mph 4 mph 95.9% 0.02 in 107 W/m2
11:04 40.4 °F 39.2 °F 29.50 in North 0.3 mph 4 mph 95.2% 0.02 in 113 W/m2
11:09 40.5 °F 39.2 °F 29.50 in Calm   2 mph 95.1% 0.00 in 113 W/m2
11:14 40.6 °F 39.5 °F 29.49 in Calm   2 mph 96% 0.00 in 107 W/m2
11:19 40.6 °F 39.6 °F 29.49 in Calm   2 mph 96% 0.00 in 160 W/m2
11:24 40.7 °F 39.7 °F 29.49 in Calm   2 mph 96% 0.00 in 179 W/m2
11:29 40.9 °F 39.7 °F 29.48 in Calm   2 mph 95.6% 0.00 in 223 W/m2
11:34 41.2 °F 40 °F 29.48 in Calm   2 mph 95.6% 0.00 in 176 W/m2
11:39 41.6 °F 40.5 °F 29.47 in Calm     96% 0.00 in 248 W/m2
11:44 41.9 °F 40.9 °F 29.47 in Calm     96% 0.00 in 362 W/m2
11:49 42 °F 40.9 °F 29.47 in Calm     96% 0.00 in 362 W/m2
11:54 42.1 °F 41 °F 29.46 in Calm     96% 0.00 in 100 W/m2
11:59 42.4 °F 41.5 °F 29.46 in Calm     96.8% 0.00 in 120 W/m2
12:00 42.6 °F 41.5 °F 29.46 in Calm     96% 0.00 in 295 W/m2
12:09 43.3 °F 42.3 °F 29.47 in North 0.2 mph 3 mph 96% 0.00 in 417 W/m2
12:14 43.9 °F 42.8 °F 29.46 in North 0.3 mph 3 mph 96% 0.00 in 429 W/m2
12:19 44.6 °F 43.5 °F 29.46 in North 0.4 mph 4 mph 96% 0.00 in 429 W/m2
12:24 45.2 °F 44.1 °F 29.46 in North 0.2 mph 4 mph 96% 0.00 in 236 W/m2
12:29 45.4 °F 44.2 °F 29.46 in North 1.2 mph 4 mph 95.4% 0.00 in 70 W/m2
12:34 45.4 °F 43.7 °F 29.46 in North 1 mph 5 mph 93.7% 0.00 in 111 W/m2
12:39 45.7 °F 43.7 °F 29.46 in North 1.8 mph 5 mph 92.7% 0.00 in 387 W/m2
12:44 46.1 °F 43.6 °F 29.46 in North 0.7 mph 5 mph 90.7% 0.00 in 432 W/m2
12:49 46.8 °F 43.8 °F 29.46 in NNW 1.7 mph 5 mph 89.3% 0.00 in 362 W/m2
12:54 47.2 °F 43 °F 29.46 in NW 3.5 mph 12 mph 85% 0.00 in 306 W/m2
12:59 47.3 °F 41.3 °F 29.46 in NW 7.1 mph 16 mph 79.4% 0.00 in 223 W/m2
13:04 47.2 °F 40.2 °F 29.46 in NW 4.5 mph 16 mph 76.5% 0.00 in 142 W/m2
13:09 47.2 °F 39.1 °F 29.46 in NNW 8.3 mph 17 mph 73.1% 0.00 in 329 W/m2
13:14 47.4 °F 38.5 °F 29.46 in NW 3.4 mph 17 mph 71% 0.00 in 227 W/m2
13:19 47.7 °F 38.6 °F 29.46 in NW 4.4 mph 17 mph 70.5% 0.00 in 299 W/m2
13:24 47.8 °F 38.2 °F 29.47 in NW 7 mph 18 mph 69.4% 0.00 in 299 W/m2
13:29 47.5 °F 37.1 °F 29.47 in WNW 8.6 mph 22 mph 67% 0.00 in 51 W/m2
13:34 47.3 °F 36.5 °F 29.47 in NW 7 mph 22 mph 65.9% 0.00 in 67 W/m2
13:39 47.2 °F 36.1 °F 29.47 in NW 10.6 mph 19 mph 65.1% 0.00 in 236 W/m2
13:44 47.3 °F 36 °F 29.47 in NW 6.9 mph 19 mph 64.6% 0.00 in 195 W/m2
13:49 47.3 °F 35.9 °F 29.48 in NW 6.7 mph 19 mph 64.3% 0.00 in 199 W/m2
13:54 47.3 °F 35.8 °F 29.48 in NW 8.4 mph 20 mph 64% 0.00 in 262 W/m2
13:59 47.4 °F 35.5 °F 29.48 in NW 7 mph 20 mph 63.2% 0.00 in 272 W/m2
14:04 47.6 °F 35.5 °F 29.48 in NW 5.4 mph 20 mph 62.7% 0.00 in 329 W/m2
14:09 47.9 °F 35.8 °F 29.48 in NW 4.4 mph 18 mph 62.7% 0.00 in 308 W/m2
14:14 48.2 °F 35.6 °F 29.49 in NW 6.5 mph 18 mph 61.4% 0.00 in 239 W/m2
14:19 48.3 °F 35.5 °F 29.49 in NW 6.6 mph 18 mph 61% 0.00 in 176 W/m2
14:24 47.9 °F 34.9 °F 29.49 in WNW 7.5 mph 19 mph 60.5% 0.00 in 93 W/m2
14:29 47.4 °F 35 °F 29.49 in NW 3.7 mph 19 mph 62% 0.00 in 65 W/m2
14:34 46.9 °F 34.8 °F 29.50 in NW 7.4 mph 20 mph 62.7% 0.00 in 58 W/m2
14:39 46.3 °F 34.6 °F 29.51 in NW 6.3 mph 20 mph 63.6% 0.00 in 47 W/m2
14:44 45.4 °F 34.1 °F 29.51 in NW 10.2 mph 26 mph 64.3% 0.00 in 47 W/m2
14:49 44.6 °F 34 °F 29.52 in NNW 6.7 mph 26 mph 66.2% 0.00 in 51 W/m2
14:54 44 °F 33.8 °F 29.52 in NW 8.8 mph 26 mph 67% 0.00 in 65 W/m2
14:59 43.5 °F 33.4 °F 29.52 in NW 7.4 mph 26 mph 67.2% 0.00 in 51 W/m2
15:04 43.2 °F 33.4 °F 29.53 in NW 5 mph 26 mph 68% 0.00 in 56 W/m2
15:09 42.9 °F 33.1 °F 29.53 in NW 5.7 mph 19 mph 68% 0.00 in 60 W/m2
15:14 42.7 °F 32.9 °F 29.54 in NW 6.7 mph 19 mph 67.9% 0.00 in 37 W/m2
15:19 42.4 °F 32.3 °F 29.55 in NW 9.4 mph 19 mph 67.2% 0.00 in 33 W/m2
15:24 42.2 °F 32 °F 29.55 in NW 5.1 mph 19 mph 67% 0.00 in 33 W/m2
15:29 42 °F 32.1 °F 29.55 in NW 5.7 mph 19 mph 67.7% 0.00 in 35 W/m2
15:34 41.8 °F 31.9 °F 29.56 in NW 2.3 mph 19 mph 67.7% 0.00 in 28 W/m2
15:39 41.7 °F 31.7 °F 29.56 in NW 6.2 mph 17 mph 67.5% 0.00 in 16 W/m2
15:44 41.5 °F 31.4 °F 29.56 in NW 6.6 mph 17 mph 67% 0.00 in 11 W/m2
15:49 41.4 °F 31.3 °F 29.57 in WNW 6.9 mph 17 mph 67% 0.00 in 9 W/m2
15:54 41.2 °F 31.1 °F 29.57 in WNW 3.7 mph 17 mph 67% 0.00 in 12 W/m2
15:59 41.1 °F 31.2 °F 29.58 in NNW 1.9 mph 17 mph 67.7% 0.00 in 12 W/m2
16:09 40.6 °F 30.5 °F 29.58 in NW 5.9 mph 15 mph 67% 0.00 in 11 W/m2
16:14 40.3 °F 30.2 °F 29.59 in NW 3.5 mph 15 mph 67% 0.00 in 9 W/m2
16:19 40 °F 29.9 °F 29.59 in NW 7.8 mph 19 mph 67% 0.00 in 5 W/m2
16:24 39.5 °F 29.5 °F 29.60 in NW 5.6 mph 21 mph 67% 0.00 in 0 W/m2
16:29 39.2 °F 29.3 °F 29.60 in NW 5.8 mph 21 mph 67.4% 0.00 in 0 W/m2
16:34 38.8 °F 28.8 °F 29.60 in NW 8.6 mph 22 mph 67% 0.00 in 0 W/m2
16:39 38.6 °F 28.8 °F 29.61 in NW 4.1 mph 22 mph 67.4% 0.00 in 0 W/m2
16:44 38.4 °F 28.6 °F 29.61 in NW 5.9 mph 22 mph 67.5% 0.00 in 0 W/m2
16:49 38.2 °F 28.1 °F 29.61 in WNW 5.3 mph 22 mph 66.7% 0.00 in 0 W/m2
16:54 38 °F 28 °F 29.61 in WNW 4.9 mph 22 mph 66.8% 0.00 in 0 W/m2
16:59 37.9 °F 27.6 °F 29.62 in NW 5.4 mph 22 mph 66.2% 0.00 in 0 W/m2
17:04 37.7 °F 27.4 °F 29.62 in NW 5.8 mph 22 mph 66% 0.00 in 0 W/m2
17:09 37.6 °F 27.3 °F 29.62 in NW 7.2 mph 15 mph 66% 0.00 in 0 W/m2
17:14 37.5 °F 27.1 °F 29.63 in NW 6 mph 17 mph 65.8% 0.00 in 0 W/m2
17:19 37.4 °F 27.1 °F 29.64 in NW 5.3 mph 17 mph 66% 0.00 in 0 W/m2
17:24 37.3 °F 26.6 °F 29.64 in NW 5.6 mph 17 mph 65% 0.00 in 0 W/m2
17:29 37.2 °F 26.3 °F 29.65 in NW 7.6 mph 17 mph 64.5% 0.00 in 0 W/m2
17:34 37.1 °F 26 °F 29.65 in NW 8.6 mph 19 mph 63.7% 0.00 in 0 W/m2
17:39 37.1 °F 25.8 °F 29.66 in NW 6.5 mph 21 mph 63.2% 0.00 in 0 W/m2
17:44 37 °F 25.4 °F 29.67 in NW 5.9 mph 21 mph 62.5% 0.00 in 0 W/m2
17:49 36.9 °F 25.1 °F 29.67 in NW 7.5 mph 21 mph 62% 0.00 in 0 W/m2
17:54 36.7 °F 24.7 °F 29.67 in NW 8 mph 21 mph 61.5% 0.00 in 0 W/m2
17:59 36.6 °F 24.4 °F 29.68 in NW 2.8 mph 21 mph 61% 0.00 in 0 W/m2
18:04 36.5 °F 24.3 °F 29.68 in NW 6.3 mph 21 mph 61% 0.00 in 0 W/m2
18:09 36.3 °F 24.2 °F 29.69 in WNW 5.5 mph 14 mph 61% 0.00 in 0 W/m2
18:14 36.2 °F 23.9 °F 29.69 in WNW 5.8 mph 14 mph 60.6% 0.00 in 0 W/m2
18:19 36.1 °F 23.6 °F 29.69 in WNW 7.9 mph 16 mph 60% 0.00 in 0 W/m2
18:24 36 °F 23.2 °F 29.69 in WNW 6.5 mph 16 mph 59.3% 0.00 in 0 W/m2
18:29 35.9 °F 22.6 °F 29.69 in WNW 8.4 mph 16 mph 58% 0.00 in 0 W/m2
18:34 35.8 °F 22.1 °F 29.70 in WNW 7.6 mph 16 mph 57% 0.00 in 0 W/m2
18:39 35.7 °F 22 °F 29.71 in WNW 6.9 mph 16 mph 57% 0.00 in 0 W/m2
18:44 35.6 °F 21.9 °F 29.71 in NW 6.6 mph 16 mph 57% 0.00 in 0 W/m2
18:49 35.5 °F 22.2 °F 29.71 in WNW 3.7 mph 16 mph 57.9% 0.00 in 0 W/m2
18:54 35.4 °F 21.7 °F 29.72 in NW 3.5 mph 16 mph 57% 0.00 in 0 W/m2
18:59 35.2 °F 21.7 °F 29.72 in WNW 3.1 mph 16 mph 57.5% 0.00 in 0 W/m2
19:04 35.1 °F 21.7 °F 29.72 in NW 3.9 mph 16 mph 57.9% 0.00 in 0 W/m2
19:09 35 °F 21.5 °F 29.72 in NW 2.9 mph 13 mph 57.6% 0.00 in 0 W/m2
19:14 34.8 °F 21.3 °F 29.72 in NW 6 mph 15 mph 57.4% 0.00 in 0 W/m2
19:19 34.8 °F 21.1 °F 29.72 in NW 6.5 mph 17 mph 57% 0.00 in 0 W/m2
19:24 34.7 °F 21 °F 29.72 in NW 3 mph 17 mph 57% 0.00 in 0 W/m2
19:29 34.7 °F 21 °F 29.73 in NW 1.9 mph 17 mph 57% 0.00 in 0 W/m2
19:34 34.6 °F 20.9 °F 29.72 in WNW 3.5 mph 17 mph 57% 0.00 in 0 W/m2
19:39 34.5 °F 20.8 °F 29.73 in WNW 0.2 mph 11 mph 57% 0.00 in 0 W/m2
19:44 34.3 °F 21 °F 29.73 in WNW 0.4 mph 11 mph 57.7% 0.00 in 0 W/m2
19:49 34.2 °F 20.6 °F 29.73 in Calm   11 mph 57% 0.00 in 0 W/m2
19:54 34.1 °F 20.8 °F 29.74 in Calm   11 mph 57.6% 0.00 in 0 W/m2
19:59 33.9 °F 20.6 °F 29.74 in Calm   11 mph 57.6% 0.00 in 0 W/m2
20:00 33.9 °F 20.7 °F 29.74 in Calm   11 mph 58% 0.00 in 0 W/m2
20:09 33.5 °F 21.1 °F 29.74 in Calm     59.9% 0.00 in 0 W/m2
20:14 33.3 °F 21 °F 29.74 in Calm     60.3% 0.00 in 0 W/m2
20:19 33 °F 21.1 °F 29.74 in WNW 0.1 mph 1 mph 61% 0.00 in 0 W/m2
20:24 32.9 °F 20.9 °F 29.74 in WNW 0.1 mph 1 mph 61% 0.00 in 0 W/m2
20:29 32.7 °F 20.8 °F 29.74 in WNW 1.2 mph 7 mph 61% 0.00 in 0 W/m2
20:34 32.7 °F 20.8 °F 29.75 in WNW 3 mph 10 mph 61% 0.00 in 0 W/m2
20:39 32.9 °F 20.9 °F 29.75 in WNW 7.6 mph 13 mph 61% 0.00 in 0 W/m2
20:44 33.2 °F 20.9 °F 29.75 in WNW 4.4 mph 13 mph 60% 0.00 in 0 W/m2
20:49 33.4 °F 21.1 °F 29.75 in WNW 4.5 mph 13 mph 60% 0.00 in 0 W/m2
20:54 33.6 °F 21.2 °F 29.75 in NW 5.2 mph 15 mph 60% 0.00 in 0 W/m2
20:59 33.8 °F 21.5 °F 29.75 in WNW 6.6 mph 19 mph 60.3% 0.00 in 0 W/m2
21:04 34 °F 21.1 °F 29.75 in NW 7.8 mph 19 mph 58.9% 0.00 in 0 W/m2
21:09 34.2 °F 21 °F 29.75 in NW 5.6 mph 18 mph 58% 0.00 in 0 W/m2
21:14 34.3 °F 20.9 °F 29.76 in WNW 7.4 mph 21 mph 57.7% 0.00 in 0 W/m2
21:19 34.4 °F 21 °F 29.76 in WNW 3.7 mph 21 mph 57.7% 0.00 in 0 W/m2
21:24 34.4 °F 20.8 °F 29.76 in NW 7.8 mph 21 mph 57% 0.00 in 0 W/m2
21:29 34.4 °F 20.8 °F 29.76 in WNW 3.8 mph 21 mph 57% 0.00 in 0 W/m2
21:34 34.4 °F 20.8 °F 29.77 in NW 4.6 mph 21 mph 57% 0.00 in 0 W/m2
21:39 34.4 °F 20.8 °F 29.76 in NW 3.8 mph 14 mph 57% 0.00 in 0 W/m2
21:44 34.4 °F 20.8 °F 29.77 in NW 5.5 mph 14 mph 57% 0.00 in 0 W/m2
21:49 34.4 °F 20.8 °F 29.77 in NW 6 mph 16 mph 57% 0.00 in 0 W/m2
21:54 34.4 °F 20.9 °F 29.77 in WNW 0.8 mph 16 mph 57.3% 0.00 in 0 W/m2
21:59 34.3 °F 21.1 °F 29.77 in NW 1.7 mph 16 mph 58% 0.00 in 0 W/m2
22:04 34.2 °F 21 °F 29.77 in WNW 3.6 mph 18 mph 58% 0.00 in 0 W/m2
22:09 34.2 °F 21 °F 29.78 in NW 6.2 mph 19 mph 58% 0.00 in 0 W/m2
22:14 34.2 °F 21.5 °F 29.78 in NW 1.6 mph 19 mph 59.3% 0.00 in 0 W/m2
22:19 34.2 °F 21.1 °F 29.78 in WNW 1.5 mph 19 mph 58.3% 0.00 in 0 W/m2
22:24 34.2 °F 20.9 °F 29.78 in WNW 3.8 mph 19 mph 58% 0.00 in 0 W/m2
22:29 34.1 °F 21.3 °F 29.78 in NW 1.5 mph 19 mph 59% 0.00 in 0 W/m2
22:34 34.1 °F 21.3 °F 29.79 in NW 2 mph 19 mph 59% 0.00 in 0 W/m2
22:39 34.1 °F 21.3 °F 29.79 in WNW 5.8 mph 12 mph 59% 0.00 in 0 W/m2
22:44 34.1 °F 20.9 °F 29.79 in WNW 3.7 mph 13 mph 58% 0.00 in 0 W/m2
22:49 34.1 °F 21 °F 29.79 in WNW 2.8 mph 14 mph 58.4% 0.00 in 0 W/m2
22:54 34 °F 21.1 °F 29.80 in WNW 6.9 mph 17 mph 58.8% 0.00 in 0 W/m2
22:59 34 °F 20.8 °F 29.81 in NW 5.7 mph 17 mph 58% 0.00 in 0 W/m2
23:09 34 °F 20.7 °F 29.81 in NW 6.3 mph 13 mph 57.7% 0.00 in 0 W/m2
23:14 34 °F 20.8 °F 29.81 in WNW 4.6 mph 13 mph 58% 0.00 in 0 W/m2
23:19 34 °F 20.5 °F 29.81 in WNW 7.4 mph 19 mph 57.3% 0.00 in 0 W/m2
23:24 34 °F 20.6 °F 29.81 in NW 10 mph 20 mph 57.4% 0.00 in 0 W/m2
23:29 34.1 °F 20.4 °F 29.81 in NW 6 mph 20 mph 57% 0.00 in 0 W/m2
23:34 34 °F 20 °F 29.82 in NW 7.7 mph 20 mph 56.2% 0.00 in 0 W/m2
23:39 34 °F 20 °F 29.82 in WNW 6.8 mph 18 mph 56% 0.00 in 0 W/m2
23:44 34 °F 20 °F 29.82 in NW 5.8 mph 18 mph 56% 0.00 in 0 W/m2
23:49 34 °F 19.9 °F 29.82 in NW 3.8 mph 18 mph 56% 0.00 in 0 W/m2
23:53 33.8 °F 19.8 °F 29.83 in NW 8.7 mph 18 mph 56% 0.00 in 0 W/m2
Hartford County Weather
Compliments of Weather Underground - 2 mb